aviador You're here:

YSNF Decoded Metar

NORFOLK ISLAND in AUSTRALIA
Report Time2017-11-23 21:30:00
UTC Time2017-11-23 22:04:56
Flight Rules mvfr MVFR
Wind080° at 16 kt
W.Decomp.*RWY 04: 14.5 kt HW 6.8 kt RCW
RWY 11: 11.3 kt HW 11.3 kt LCW
W.Rank080° ranks 6
Current wind is above 080° avg. (10.3)
Visibility9999 m
Phenomena:N/A
Clouds:Broken 014 Hf
Broken 030 Hf
Expected CloudBase > 1,600 ft AGL from Temp-Dew spread
Ceiling1,400 ft
Temp21°C (ISA +7)
Dew Point17°C (78% RH)
AAT17.6°C
QNH1021 hPa
Density Alt1,132 ft
Elevation358 ft
Report Wrong Elevation
Raw Report
YSNF 232130Z 08016KT 9999 BKN014 BKN030 21/17 Q1021=

Extra information for YSNF:More info

Metar Taf Metar & Taf Last 4 Metars F.Rules Stats Wind Profile Meteogram Temp Stats Airport Information Weather charts Add Link Nearby VenuesMetar ALERT Operation Metar Decoded Social comments